createdAt,value
2019-05-07T00:00:32.918Z,5.70
2019-05-07T00:03:03.328Z,5.60
2019-05-07T00:05:33.171Z,5.60
2019-05-07T00:08:03.016Z,5.50
2019-05-07T00:10:33.116Z,5.50
2019-05-07T00:13:02.344Z,5.40
2019-05-07T00:15:32.754Z,5.30
2019-05-07T00:18:03.111Z,5.20
2019-05-07T00:20:32.721Z,5.10
2019-05-07T00:23:02.924Z,5.00
2019-05-07T00:25:32.854Z,4.90
2019-05-07T00:28:02.798Z,4.90
2019-05-07T00:30:33.233Z,4.80
2019-05-07T00:33:02.779Z,4.80
2019-05-07T00:35:35.716Z,4.60
2019-05-07T00:38:05.919Z,4.60
2019-05-07T00:40:48.068Z,4.60
2019-05-07T00:43:18.158Z,4.60
2019-05-07T00:45:56.808Z,4.50
2019-05-07T00:48:24.436Z,4.30
2019-05-07T00:50:54.490Z,4.30
2019-05-07T00:53:23.692Z,4.20
2019-05-07T00:55:52.614Z,4.20
2019-05-07T00:58:26.011Z,4.30
2019-05-07T01:00:53.093Z,4.20
2019-05-07T01:03:22.220Z,4.10
2019-05-07T01:05:52.708Z,4.10
2019-05-07T01:08:22.603Z,4.20
2019-05-07T01:10:52.961Z,4.10
2019-05-07T01:13:23.399Z,4.10
2019-05-07T01:15:53.182Z,4.00
2019-05-07T01:18:23.277Z,3.90
2019-05-07T01:20:53.294Z,4.00
2019-05-07T01:23:22.861Z,3.90
2019-05-07T01:25:52.670Z,3.80
2019-05-07T01:28:22.360Z,3.80
2019-05-07T01:30:52.762Z,3.80
2019-05-07T01:33:38.692Z,3.70
2019-05-07T01:36:22.635Z,3.70
2019-05-07T01:38:52.256Z,3.70
2019-05-07T01:41:22.991Z,3.60
2019-05-07T01:43:52.370Z,3.50
2019-05-07T01:46:24.548Z,3.50
2019-05-07T01:48:53.588Z,3.40
2019-05-07T01:51:22.265Z,3.40
2019-05-07T01:53:52.471Z,3.40
2019-05-07T01:56:22.917Z,3.30
2019-05-07T01:58:52.795Z,3.30
2019-05-07T02:01:22.204Z,3.30
2019-05-07T02:04:04.080Z,3.20
2019-05-07T02:06:40.201Z,3.20
2019-05-07T02:09:26.846Z,3.20
2019-05-07T02:12:03.931Z,3.10
2019-05-07T02:14:33.011Z,3.10
2019-05-07T02:17:02.964Z,3.00
2019-05-07T02:19:32.977Z,3.00
2019-05-07T02:22:02.820Z,3.10
2019-05-07T02:24:33.701Z,3.00
2019-05-07T02:27:02.971Z,3.00
2019-05-07T02:29:32.343Z,2.90
2019-05-07T02:32:04.156Z,2.90
2019-05-07T02:34:33.944Z,2.90
2019-05-07T02:37:04.003Z,2.80
2019-05-07T02:39:36.299Z,2.90
2019-05-07T02:42:04.863Z,2.80
2019-05-07T02:44:34.966Z,2.80
2019-05-07T02:47:12.895Z,2.80
2019-05-07T02:49:45.546Z,2.80
2019-05-07T02:52:32.523Z,2.80
2019-05-07T02:55:05.325Z,2.80
2019-05-07T02:57:34.315Z,2.80
2019-05-07T03:00:04.911Z,2.70
2019-05-07T03:02:34.026Z,2.70
2019-05-07T03:05:05.277Z,2.80
2019-05-07T03:07:33.451Z,2.70
2019-05-07T03:10:03.557Z,2.80
2019-05-07T03:16:13.130Z,2.60
2019-05-07T03:18:43.813Z,2.50
2019-05-07T03:21:13.577Z,2.50
2019-05-07T03:23:46.546Z,2.50
2019-05-07T03:26:16.664Z,2.50
2019-05-07T03:28:53.640Z,2.50
2019-05-07T03:31:26.943Z,2.50
2019-05-07T03:33:57.163Z,2.50
2019-05-07T03:36:47.509Z,2.50
2019-05-07T03:39:14.479Z,2.50
2019-05-07T03:41:43.429Z,2.50
2019-05-07T03:44:13.730Z,2.50
2019-05-07T03:46:54.503Z,2.50
2019-05-07T03:49:29.325Z,2.50
2019-05-07T03:51:57.840Z,2.40
2019-05-07T03:54:26.416Z,2.50
2019-05-07T03:56:54.838Z,2.50
2019-05-07T03:59:23.505Z,2.50
2019-05-07T04:01:53.785Z,2.50
2019-05-07T04:04:23.157Z,2.50
2019-05-07T04:06:53.801Z,2.50
2019-05-07T04:09:24.178Z,2.50
2019-05-07T04:11:53.006Z,2.40
2019-05-07T04:14:23.088Z,2.50
2019-05-07T04:16:53.470Z,2.50
2019-05-07T04:19:23.593Z,2.50
2019-05-07T04:21:53.330Z,2.50
2019-05-07T04:24:27.202Z,2.50
2019-05-07T04:26:57.237Z,2.40
2019-05-07T04:29:25.671Z,2.40
2019-05-07T04:31:54.074Z,2.50
2019-05-07T04:34:24.138Z,2.50
2019-05-07T04:36:53.459Z,2.50
2019-05-07T04:39:23.178Z,2.50
2019-05-07T04:41:53.112Z,2.50
2019-05-07T04:44:23.542Z,2.50
2019-05-07T04:46:53.279Z,2.50
2019-05-07T04:49:23.961Z,2.50
2019-05-07T04:51:59.988Z,2.60
2019-05-07T04:54:28.405Z,2.60
2019-05-07T04:56:56.858Z,2.60
2019-05-07T04:59:25.264Z,2.60
2019-05-07T05:02:13.724Z,2.70
2019-05-07T05:04:43.870Z,2.70
2019-05-07T05:07:13.369Z,2.70
2019-05-07T05:09:42.654Z,2.70
2019-05-07T05:12:13.142Z,2.80
2019-05-07T05:14:43.476Z,2.90
2019-05-07T05:17:13.018Z,2.90
2019-05-07T05:19:43.741Z,3.00
2019-05-07T05:22:22.733Z,3.00
2019-05-07T05:25:08.828Z,3.10
2019-05-07T05:27:37.308Z,3.10
2019-05-07T05:30:10.007Z,3.30
2019-05-07T05:32:38.500Z,3.40
2019-05-07T05:35:12.491Z,3.50
2019-05-07T05:37:46.666Z,3.60
2019-05-07T05:40:15.622Z,3.70
2019-05-07T05:43:02.004Z,3.90
2019-05-07T05:45:34.226Z,4.00
2019-05-07T05:48:07.892Z,4.10
2019-05-07T05:50:53.419Z,4.30
2019-05-07T05:53:34.683Z,4.40
2019-05-07T05:56:20.112Z,4.50
2019-05-07T05:59:06.679Z,4.60
2019-05-07T06:01:53.258Z,4.70
2019-05-07T06:04:29.075Z,4.80
2019-05-07T06:07:15.097Z,5.00
2019-05-07T06:09:45.146Z,5.20
2019-05-07T06:12:32.622Z,5.40
2019-05-07T06:15:12.663Z,5.60
2019-05-07T06:17:43.001Z,5.80
2019-05-07T06:20:25.751Z,6.20
2019-05-07T06:23:13.878Z,6.40
2019-05-07T06:25:43.934Z,6.60
2019-05-07T06:28:12.752Z,6.90
2019-05-07T06:30:41.911Z,7.10
2019-05-07T06:33:12.460Z,7.20
2019-05-07T06:35:42.290Z,7.40
2019-05-07T06:38:12.469Z,7.50
2019-05-07T06:40:59.290Z,7.50
2019-05-07T06:43:47.396Z,7.20
2019-05-07T06:46:15.796Z,6.90
2019-05-07T06:48:46.292Z,6.80
2019-05-07T06:51:17.177Z,7.00
2019-05-07T06:53:44.514Z,7.20
2019-05-07T06:56:12.989Z,7.40
2019-05-07T06:58:58.245Z,7.70
2019-05-07T07:01:28.501Z,7.80
2019-05-07T07:03:58.706Z,8.00
2019-05-07T07:06:29.050Z,8.30
2019-05-07T07:08:59.116Z,8.20
2019-05-07T07:11:38.509Z,8.30
2019-05-07T07:14:07.042Z,8.40
2019-05-07T07:16:35.796Z,8.30
2019-05-07T07:19:04.464Z,8.50
2019-05-07T07:21:32.906Z,8.40
2019-05-07T07:24:03.022Z,8.50
2019-05-07T07:26:32.792Z,8.30
2019-05-07T07:29:02.012Z,8.30
2019-05-07T07:31:32.335Z,8.20
2019-05-07T07:34:02.494Z,8.50
2019-05-07T07:36:32.575Z,8.70
2019-05-07T07:39:02.033Z,8.70
2019-05-07T07:41:32.748Z,8.80
2019-05-07T07:44:02.094Z,8.80
2019-05-07T07:46:32.853Z,8.90
2019-05-07T07:49:09.843Z,8.90
2019-05-07T07:51:40.720Z,9.00
2019-05-07T07:54:02.499Z,9.00
2019-05-07T07:56:48.424Z,9.10
2019-05-07T07:59:22.833Z,9.30
2019-05-07T08:01:55.580Z,9.40
2019-05-07T08:04:24.087Z,9.40
2019-05-07T08:07:04.368Z,9.40
2019-05-07T08:09:34.311Z,9.60
2019-05-07T08:12:03.670Z,9.70
2019-05-07T08:14:32.731Z,9.80
2019-05-07T08:17:03.001Z,9.90
2019-05-07T08:19:33.141Z,10.00
2019-05-07T08:22:02.848Z,10.30
2019-05-07T08:24:32.146Z,10.60
2019-05-07T08:27:02.369Z,10.80
2019-05-07T08:29:32.527Z,11.00
2019-05-07T08:32:03.604Z,11.00
2019-05-07T08:34:52.246Z,10.80
2019-05-07T08:37:24.336Z,11.00
2019-05-07T08:39:52.043Z,11.10
2019-05-07T08:42:22.668Z,11.20
2019-05-07T08:44:54.827Z,11.20
2019-05-07T08:47:24.983Z,11.10
2019-05-07T08:49:53.415Z,11.10
2019-05-07T08:52:22.370Z,11.10
2019-05-07T08:54:51.986Z,11.30
2019-05-07T08:57:22.550Z,11.20
2019-05-07T08:59:58.404Z,11.30
2019-05-07T09:02:22.226Z,11.20
2019-05-07T09:04:52.238Z,11.40
2019-05-07T09:07:21.941Z,11.40
2019-05-07T09:09:52.271Z,11.30
2019-05-07T09:12:22.957Z,11.50
2019-05-07T09:14:52.911Z,11.90
2019-05-07T09:17:22.949Z,11.90
2019-05-07T09:19:54.741Z,11.50
2019-05-07T09:22:22.991Z,11.70
2019-05-07T09:24:52.659Z,11.70
2019-05-07T09:27:32.828Z,11.50
2019-05-07T09:30:22.008Z,11.80
2019-05-07T09:32:58.090Z,11.60
2019-05-07T09:35:46.413Z,11.30
2019-05-07T09:38:14.836Z,11.60
2019-05-07T09:40:43.403Z,11.40
2019-05-07T09:43:11.930Z,11.60
2019-05-07T09:45:42.133Z,11.50
2019-05-07T09:48:11.978Z,11.40
2019-05-07T09:50:42.772Z,11.50
2019-05-07T09:53:12.726Z,11.60
2019-05-07T09:55:42.590Z,11.70
2019-05-07T09:58:12.585Z,11.80
2019-05-07T10:00:42.420Z,11.90
2019-05-07T10:03:12.627Z,11.70
2019-05-07T10:05:42.687Z,12.00
2019-05-07T10:08:12.866Z,11.90
2019-05-07T10:10:42.531Z,11.90
2019-05-07T10:13:27.726Z,12.10
2019-05-07T10:15:56.233Z,12.00
2019-05-07T10:18:24.701Z,12.00
2019-05-07T10:20:53.259Z,12.10
2019-05-07T10:23:22.959Z,11.90
2019-05-07T10:25:52.511Z,12.30
2019-05-07T10:28:28.341Z,12.60
2019-05-07T10:30:56.830Z,12.50
2019-05-07T10:33:25.381Z,12.70
2019-05-07T10:35:53.792Z,12.50
2019-05-07T10:38:22.310Z,12.40
2019-05-07T10:40:50.728Z,12.30
2019-05-07T10:43:19.422Z,12.10
2019-05-07T10:45:55.562Z,12.30
2019-05-07T10:48:25.797Z,12.40
2019-05-07T10:51:02.167Z,12.60
2019-05-07T10:53:32.006Z,12.90
2019-05-07T10:56:02.525Z,12.90
2019-05-07T10:58:32.055Z,12.70
2019-05-07T11:01:02.718Z,12.50
2019-05-07T11:03:32.413Z,12.50
2019-05-07T11:06:01.248Z,12.80
2019-05-07T11:08:29.660Z,12.90
2019-05-07T11:10:58.162Z,13.00
2019-05-07T11:13:26.672Z,12.90
2019-05-07T11:16:08.618Z,12.60
2019-05-07T11:18:42.665Z,12.30
2019-05-07T11:21:11.901Z,12.30
2019-05-07T11:23:41.896Z,12.40
2019-05-07T11:26:11.803Z,12.70
2019-05-07T11:28:40.511Z,13.10
2019-05-07T11:31:08.957Z,13.50
2019-05-07T11:33:37.365Z,13.50
2019-05-07T11:36:05.840Z,13.50
2019-05-07T11:38:34.343Z,13.50
2019-05-07T11:41:03.043Z,13.30
2019-05-07T11:43:48.292Z,13.50
2019-05-07T11:46:27.012Z,13.60
2019-05-07T11:48:57.078Z,13.20
2019-05-07T11:51:39.012Z,13.40
2019-05-07T11:54:08.806Z,13.60
2019-05-07T11:56:38.280Z,13.70
2019-05-07T11:59:06.866Z,13.60
2019-05-07T12:01:44.562Z,13.70
2019-05-07T12:04:07.244Z,13.50
2019-05-07T12:06:35.845Z,13.50
2019-05-07T12:09:07.076Z,13.30
2019-05-07T12:11:35.559Z,13.50
2019-05-07T12:14:04.359Z,13.40
2019-05-07T12:16:32.783Z,13.60
2019-05-07T12:19:02.232Z,13.90
2019-05-07T12:21:30.999Z,14.00
2019-05-07T12:23:59.401Z,14.10
2019-05-07T12:26:27.991Z,14.30
2019-05-07T12:28:56.407Z,14.40
2019-05-07T12:31:33.607Z,14.40
2019-05-07T12:34:11.691Z,14.40
2019-05-07T12:36:39.791Z,14.60
2019-05-07T12:39:09.054Z,14.70
2019-05-07T12:41:37.495Z,15.00
2019-05-07T12:44:07.346Z,15.40
2019-05-07T12:46:36.930Z,15.30
2019-05-07T12:49:06.303Z,15.40
2019-05-07T12:51:37.708Z,15.50
2019-05-07T12:54:14.159Z,15.20
2019-05-07T12:56:42.759Z,15.30
2019-05-07T12:59:12.882Z,15.00
2019-05-07T13:01:43.105Z,15.10
2019-05-07T13:04:19.017Z,15.20
2019-05-07T13:06:54.814Z,15.20
2019-05-07T13:09:23.330Z,15.50
2019-05-07T13:11:52.521Z,15.70
2019-05-07T13:14:21.819Z,15.90
2019-05-07T13:16:52.257Z,16.10
2019-05-07T13:19:22.420Z,16.00
2019-05-07T13:21:50.698Z,16.20
2019-05-07T13:24:19.131Z,16.20
2019-05-07T13:26:47.574Z,16.10
2019-05-07T13:29:16.012Z,16.00
2019-05-07T13:31:44.962Z,15.80
2019-05-07T13:34:13.487Z,15.80
2019-05-07T13:36:43.694Z,15.60
2019-05-07T13:39:32.544Z,15.60
2019-05-07T13:42:02.887Z,15.80
2019-05-07T13:44:35.567Z,15.70
2019-05-07T13:47:21.997Z,15.70
2019-05-07T13:49:53.518Z,15.10
2019-05-07T13:52:23.608Z,15.30
2019-05-07T13:54:52.884Z,15.50
2019-05-07T13:57:22.708Z,15.30
2019-05-07T13:59:53.054Z,15.20
2019-05-07T14:02:25.982Z,15.30
2019-05-07T14:04:54.749Z,15.20
2019-05-07T14:07:24.013Z,15.30
2019-05-07T14:09:52.907Z,15.40
2019-05-07T14:12:22.905Z,15.60
2019-05-07T14:14:53.028Z,15.80
2019-05-07T14:17:22.387Z,16.20
2019-05-07T14:19:52.847Z,16.40
2019-05-07T14:22:22.531Z,16.50
2019-05-07T14:24:52.933Z,16.50
2019-05-07T14:27:21.795Z,16.70
2019-05-07T14:29:52.038Z,16.70
2019-05-07T14:32:22.086Z,17.00
2019-05-07T14:35:08.385Z,17.00
2019-05-07T14:37:46.220Z,16.90
2019-05-07T14:40:15.797Z,16.60
2019-05-07T14:42:45.853Z,16.80
2019-05-07T14:45:14.408Z,16.80
2019-05-07T14:47:44.744Z,17.00
2019-05-07T14:50:14.453Z,16.80
2019-05-07T14:52:43.439Z,16.70
2019-05-07T14:55:12.844Z,16.70
2019-05-07T14:57:42.086Z,16.90
2019-05-07T15:00:12.282Z,17.00
2019-05-07T15:02:42.129Z,17.00
2019-05-07T15:05:12.024Z,17.10
2019-05-07T15:07:40.973Z,17.00
2019-05-07T15:10:10.395Z,16.90
2019-05-07T15:12:38.844Z,16.70
2019-05-07T15:15:08.152Z,16.60
2019-05-07T15:17:52.469Z,16.20
2019-05-07T15:20:23.072Z,16.50
2019-05-07T15:23:02.773Z,16.70
2019-05-07T15:25:32.109Z,16.50
2019-05-07T15:28:01.785Z,16.50
2019-05-07T15:30:32.581Z,16.30
2019-05-07T15:33:02.278Z,16.20
2019-05-07T15:35:31.987Z,16.20
2019-05-07T15:38:02.472Z,16.30
2019-05-07T15:40:32.835Z,16.10
2019-05-07T15:43:02.192Z,16.10
2019-05-07T15:45:30.676Z,16.00
2019-05-07T15:47:59.364Z,16.00
2019-05-07T15:50:32.212Z,16.10
2019-05-07T15:53:04.894Z,16.10
2019-05-07T15:55:33.313Z,16.20
2019-05-07T15:58:02.790Z,16.30
2019-05-07T16:00:33.617Z,16.30
2019-05-07T16:03:11.904Z,16.40
2019-05-07T16:05:42.229Z,16.40
2019-05-07T16:08:12.372Z,16.40
2019-05-07T16:10:42.676Z,16.40
2019-05-07T16:13:34.737Z,16.40
2019-05-07T16:16:03.211Z,16.50
2019-05-07T16:18:39.420Z,16.50
2019-05-07T16:21:07.902Z,16.50
2019-05-07T16:23:36.405Z,16.60
2019-05-07T16:26:05.305Z,16.50
2019-05-07T16:28:33.890Z,16.40
2019-05-07T16:31:02.619Z,16.30
2019-05-07T16:33:32.362Z,16.30
2019-05-07T16:36:02.116Z,16.20
2019-05-07T16:38:32.562Z,16.10
2019-05-07T16:41:00.871Z,16.10
2019-05-07T16:43:29.291Z,16.00
2019-05-07T16:45:57.762Z,15.90
2019-05-07T16:48:26.164Z,15.80
2019-05-07T16:50:58.037Z,15.70
2019-05-07T16:53:29.927Z,15.60
2019-05-07T16:55:56.650Z,15.60
2019-05-07T16:58:26.742Z,15.40
2019-05-07T17:01:00.127Z,15.40
2019-05-07T17:03:31.901Z,15.20
2019-05-07T17:06:01.827Z,15.20
2019-05-07T17:08:32.058Z,15.20
2019-05-07T17:11:02.882Z,15.20
2019-05-07T17:13:31.934Z,15.10
2019-05-07T17:16:03.300Z,15.20
2019-05-07T17:18:33.050Z,15.10
2019-05-07T17:21:02.399Z,15.00
2019-05-07T17:23:43.334Z,14.90
2019-05-07T17:26:05.800Z,14.90
2019-05-07T17:28:34.247Z,14.80
2019-05-07T17:31:03.159Z,14.70
2019-05-07T17:33:32.052Z,14.60
2019-05-07T17:36:06.523Z,14.60
2019-05-07T17:38:35.113Z,14.50
2019-05-07T17:41:13.559Z,14.40
2019-05-07T17:43:34.784Z,14.30
2019-05-07T17:46:03.397Z,14.20
2019-05-07T17:48:32.712Z,14.00
2019-05-07T17:51:07.114Z,13.90
2019-05-07T17:53:35.516Z,13.90
2019-05-07T17:56:05.008Z,13.70
2019-05-07T17:58:33.445Z,13.60
2019-05-07T18:01:03.611Z,13.50
2019-05-07T18:03:33.737Z,13.40
2019-05-07T18:06:02.882Z,13.30
2019-05-07T18:08:32.538Z,13.20
2019-05-07T18:11:02.236Z,13.10
2019-05-07T18:13:32.378Z,13.00
2019-05-07T18:16:03.062Z,12.90
2019-05-07T18:18:32.731Z,12.80
2019-05-07T18:21:02.227Z,12.70
2019-05-07T18:23:32.072Z,12.60
2019-05-07T18:26:00.879Z,12.40
2019-05-07T18:28:29.480Z,12.30
2019-05-07T18:30:58.167Z,12.30
2019-05-07T18:33:34.648Z,12.20
2019-05-07T18:36:03.084Z,12.10
2019-05-07T18:38:32.896Z,12.00
2019-05-07T18:41:02.654Z,11.90
2019-05-07T18:43:33.152Z,11.80
2019-05-07T18:46:02.253Z,11.80
2019-05-07T18:48:30.944Z,11.70
2019-05-07T18:51:02.522Z,11.70
2019-05-07T18:53:31.854Z,11.70
2019-05-07T18:56:04.361Z,11.80
2019-05-07T18:58:32.818Z,11.70
2019-05-07T19:01:02.881Z,11.60
2019-05-07T19:03:42.166Z,11.40
2019-05-07T19:06:13.464Z,11.40
2019-05-07T19:08:42.275Z,11.30
2019-05-07T19:11:12.294Z,11.30
2019-05-07T19:13:41.954Z,11.30
2019-05-07T19:16:12.439Z,11.30
2019-05-07T19:18:43.116Z,11.20
2019-05-07T19:21:11.853Z,11.20
2019-05-07T19:23:52.967Z,11.20
2019-05-07T19:26:21.701Z,11.10
2019-05-07T19:28:50.341Z,11.10
2019-05-07T19:31:19.119Z,11.10
2019-05-07T19:33:47.642Z,10.90
2019-05-07T19:36:16.183Z,10.90
2019-05-07T19:39:01.823Z,10.90
2019-05-07T19:41:37.059Z,11.00
2019-05-07T19:44:05.592Z,10.90
2019-05-07T19:46:34.132Z,10.90
2019-05-07T19:49:02.805Z,10.80
2019-05-07T19:51:32.038Z,10.80
2019-05-07T19:54:02.063Z,10.70
2019-05-07T19:56:32.443Z,10.70
2019-05-07T19:59:00.986Z,10.70
2019-05-07T20:01:32.413Z,10.70
2019-05-07T20:04:02.581Z,10.70
2019-05-07T20:06:32.464Z,10.60
2019-05-07T20:09:09.838Z,10.60
2019-05-07T20:11:33.224Z,10.60
2019-05-07T20:14:02.093Z,10.60
2019-05-07T20:16:32.923Z,10.50
2019-05-07T20:19:00.758Z,10.40
2019-05-07T20:21:29.207Z,10.50
2019-05-07T20:23:58.137Z,10.50
2019-05-07T20:26:26.777Z,10.50
2019-05-07T20:29:00.187Z,10.40
2019-05-07T20:31:28.809Z,10.40
2019-05-07T20:33:57.366Z,10.40
2019-05-07T20:36:25.890Z,10.30
2019-05-07T20:38:54.409Z,10.30
2019-05-07T20:41:24.748Z,10.40
2019-05-07T20:43:53.188Z,10.40
2019-05-07T20:46:21.776Z,10.30
2019-05-07T20:48:52.600Z,10.30
2019-05-07T20:51:23.138Z,10.20
2019-05-07T20:54:08.914Z,10.20
2019-05-07T20:56:46.743Z,10.20
2019-05-07T20:59:15.348Z,10.20
2019-05-07T21:01:43.768Z,10.10
2019-05-07T21:04:13.318Z,10.10
2019-05-07T21:06:43.189Z,10.10
2019-05-07T21:09:12.724Z,10.10
2019-05-07T21:11:43.010Z,10.10
2019-05-07T21:14:12.188Z,10.10
2019-05-07T21:16:42.502Z,10.20
2019-05-07T21:19:17.534Z,10.10
2019-05-07T21:21:45.959Z,10.20
2019-05-07T21:24:14.399Z,10.00
2019-05-07T21:26:42.854Z,10.00
2019-05-07T21:29:24.367Z,10.00
2019-05-07T21:31:52.820Z,10.00
2019-05-07T21:34:23.017Z,10.00
2019-05-07T21:36:52.397Z,10.00
2019-05-07T21:39:22.307Z,10.00
2019-05-07T21:41:51.990Z,9.90
2019-05-07T21:44:22.765Z,9.80
2019-05-07T21:47:09.162Z,9.90
2019-05-07T21:49:38.831Z,9.80
2019-05-07T21:52:07.251Z,9.70
2019-05-07T21:55:13.439Z,9.80
2019-05-07T21:57:43.527Z,9.70
2019-05-07T22:00:17.448Z,9.70
2019-05-07T22:02:52.683Z,9.70
2019-05-07T22:05:22.458Z,9.60
2019-05-07T22:07:54.153Z,9.70
2019-05-07T22:10:22.378Z,9.70
2019-05-07T22:12:52.089Z,9.70
2019-05-07T22:15:22.439Z,9.70
2019-05-07T22:17:52.081Z,9.70
2019-05-07T22:23:13.024Z,9.60
2019-05-07T22:25:51.989Z,9.60
2019-05-07T22:28:23.208Z,9.60
2019-05-07T22:31:12.692Z,9.60
2019-05-07T22:33:53.838Z,9.70
2019-05-07T22:36:24.401Z,9.70
2019-05-07T22:38:55.410Z,9.70
2019-05-07T22:41:27.133Z,9.70
2019-05-07T22:43:57.615Z,9.70
2019-05-07T22:46:26.447Z,9.70
2019-05-07T22:48:55.338Z,9.70
2019-05-07T22:51:24.184Z,9.70
2019-05-07T22:53:54.256Z,9.70
2019-05-07T22:56:34.193Z,9.60
2019-05-07T22:58:56.481Z,9.70
2019-05-07T23:01:25.258Z,9.70
2019-05-07T23:03:55.662Z,9.80
2019-05-07T23:06:25.314Z,9.80
2019-05-07T23:08:57.536Z,9.80
2019-05-07T23:11:26.247Z,9.80
2019-05-07T23:13:55.274Z,9.80
2019-05-07T23:16:24.126Z,9.70
2019-05-07T23:18:52.802Z,9.70
2019-05-07T23:21:27.116Z,9.60
2019-05-07T23:23:56.039Z,9.70
2019-05-07T23:26:24.901Z,9.60
2019-05-07T23:28:53.572Z,9.70
2019-05-07T23:31:23.403Z,9.70
2019-05-07T23:33:52.463Z,9.70
2019-05-07T23:36:22.480Z,9.80
2019-05-07T23:38:52.241Z,9.80
2019-05-07T23:41:32.971Z,9.80
2019-05-07T23:44:18.287Z,9.80
2019-05-07T23:46:48.017Z,9.80
2019-05-07T23:49:17.206Z,9.80
2019-05-07T23:51:46.195Z,9.70
2019-05-07T23:54:15.018Z,9.70
2019-05-07T23:56:43.736Z,9.80
2019-05-07T23:59:14.913Z,9.70
